WXM80 ListenWXM80 Stop

You find our weather info also at:

UK Metoffice

WeatherCloud

Weather Underground

Northeastern Weather Network

AWEKAS

Citizen Weather Observer Program (CWOP)

HAMweather, WeatherForYou, PWS Weather


Weather Underground History page Text

Daily Summary for June 10, 2017 Units:  English    Metric   Both
« Previous Day
Next Day »
Daily Weekly Monthly Yearly Custom
  High: Low: Average:
Temperature: 90.6 °F 61.0 °F 75 °F
Dew Point: 65.3 °F 54.3 °F 59.7 °F
Humidity: 84 % 38 % 61 %
Wind Speed: 7.2 mph 0.0 mph 2 mph
Wind Gust: 16.0 mph - -
Wind:- - SW
Pressure: 29.98 in 29.83 in -
Precipitation: 0.00 in    
Historical Graphs
 
 
Tabular Data for June 10, 2017
Time Temperature Dew Point Pressure Wind Wind Speed Wind Gust Humidity Rainfall Rate (Hourly)
00:01 65.8 °F 54.9 °F 29.83 in SW 0.6 mph 2.3 mph 68 % 0.00 in
00:07 65.7 °F 54.8 °F 29.83 in SW 1.2 mph 3.5 mph 68 % 0.00 in
00:12 65.6 °F 54.8 °F 29.84 in SW 0.2 mph 1.0 mph 68 % 0.00 in
00:17 65.6 °F 54.8 °F 29.84 in SW 0.1 mph   68 % 0.00 in
00:22 65.6 °F 54.8 °F 29.84 in Calm     68 % 0.00 in
00:27 65.6 °F 54.8 °F 29.84 in SW 0.9 mph 2.3 mph 68 % 0.00 in
00:32 65.5 °F 54.7 °F 29.84 in Calm     68 % 0.00 in
00:37 65.5 °F 54.7 °F 29.84 in Calm     68 % 0.00 in
00:42 65.5 °F 54.7 °F 29.84 in Calm     68 % 0.00 in
00:47 65.5 °F 54.7 °F 29.84 in SW 0.4 mph 2.3 mph 68 % 0.00 in
00:52 65.4 °F 54.6 °F 29.84 in SW 0.4 mph 2.3 mph 68 % 0.00 in
00:57 65.4 °F 54.6 °F 29.85 in Calm   1.2 mph 68 % 0.00 in
01:02 65.4 °F 54.6 °F 29.85 in SW 0.3 mph 1.2 mph 68 % 0.00 in
01:07 65.4 °F 54.6 °F 29.85 in SW 1.2 mph 2.3 mph 68 % 0.00 in
01:12 65.5 °F 54.7 °F 29.85 in SW 0.7 mph 1.2 mph 68 % 0.00 in
01:23 65.5 °F 54.7 °F 29.85 in SW 0.5 mph 2.3 mph 68 % 0.00 in
01:28 65.6 °F 54.8 °F 29.85 in SW 1.1 mph 3.5 mph 68 % 0.00 in
01:33 65.6 °F 54.8 °F 29.85 in SW 0.5 mph 2.3 mph 68 % 0.00 in
01:38 65.7 °F 54.8 °F 29.85 in SW 1.1 mph 2.3 mph 68 % 0.00 in
01:39 65.7 °F 54.8 °F 29.85 in SW 1.5 mph 2.3 mph 68 % 0.00 in
01:44 65.7 °F 54.8 °F 29.85 in SW 1.4 mph 2.3 mph 68 % 0.00 in
01:49 65.7 °F 54.8 °F 29.85 in SW 1.1 mph 2.0 mph 68 % 0.00 in
01:54 65.7 °F 54.8 °F 29.85 in SW 1.3 mph 2.3 mph 68 % 0.00 in
01:59 65.7 °F 54.8 °F 29.85 in SW 0.8 mph 2.3 mph 68 % 0.00 in
02:04 65.6 °F 54.8 °F 29.85 in SW 1.7 mph 3.5 mph 68 % 0.00 in
02:09 65.6 °F 54.8 °F 29.85 in SW 2.0 mph 3.5 mph 68 % 0.00 in
02:14 65.5 °F 54.7 °F 29.85 in SSW 0.8 mph 2.3 mph 68 % 0.00 in
02:20 65.5 °F 54.7 °F 29.86 in SSW 0.1 mph 2.3 mph 68 % 0.00 in
02:25 65.4 °F 55.0 °F 29.86 in SSW 1.6 mph 2.3 mph 69 % 0.00 in
02:30 65.4 °F 54.6 °F 29.85 in SSW 1.6 mph 2.3 mph 68 % 0.00 in
02:35 65.3 °F 54.5 °F 29.85 in SW 1.4 mph 2.3 mph 68 % 0.00 in
02:40 65.3 °F 54.9 °F 29.86 in SW 1.8 mph 3.5 mph 69 % 0.00 in
02:45 65.2 °F 54.8 °F 29.86 in SW 0.7 mph 2.3 mph 69 % 0.00 in
02:50 65.2 °F 54.8 °F 29.86 in SW 1.8 mph 3.5 mph 69 % 0.00 in
02:55 65.2 °F 54.8 °F 29.86 in SW 2.0 mph 3.5 mph 69 % 0.00 in
03:00 65.2 °F 54.8 °F 29.86 in SW 1.9 mph 3.5 mph 69 % 0.00 in
03:05 65.1 °F 54.7 °F 29.86 in WSW 1.8 mph 3.5 mph 69 % 0.00 in
03:10 65.2 °F 54.8 °F 29.86 in WSW 0.3 mph 3.5 mph 69 % 0.00 in
03:15 65.2 °F 54.4 °F 29.86 in WSW 0.9 mph 2.3 mph 68 % 0.00 in
03:20 65.2 °F 54.4 °F 29.86 in WSW 1.3 mph 2.3 mph 68 % 0.00 in
03:25 65.3 °F 54.5 °F 29.86 in WSW 1.2 mph 2.3 mph 68 % 0.00 in
03:30 65.3 °F 54.9 °F 29.86 in WSW 1.5 mph 3.0 mph 69 % 0.00 in
03:35 65.3 °F 54.5 °F 29.86 in WSW 1.1 mph 2.3 mph 68 % 0.00 in
03:40 65.3 °F 54.5 °F 29.86 in WSW 1.5 mph 3.0 mph 68 % 0.00 in
03:45 65.3 °F 54.5 °F 29.86 in WSW 1.1 mph 2.3 mph 68 % 0.00 in
03:50 65.2 °F 54.4 °F 29.87 in WSW 0.2 mph 1.2 mph 68 % 0.00 in
03:55 65.2 °F 54.4 °F 29.86 in WSW 0.6 mph 1.2 mph 68 % 0.00 in
04:00 65.2 °F 54.4 °F 29.87 in WSW 0.5 mph 1.2 mph 68 % 0.00 in
04:05 65.2 °F 54.8 °F 29.86 in WSW 1.7 mph 3.5 mph 69 % 0.00 in
04:10 65.1 °F 54.7 °F 29.87 in WSW 2.7 mph 3.5 mph 69 % 0.00 in
04:15 65.0 °F 54.6 °F 29.87 in WSW 1.8 mph 3.5 mph 69 % 0.00 in
04:20 64.9 °F 54.5 °F 29.87 in WSW 1.2 mph 3.5 mph 69 % 0.00 in
04:25 64.8 °F 54.4 °F 29.87 in WSW 0.7 mph 2.3 mph 69 % 0.00 in
04:30 64.7 °F 54.3 °F 29.87 in Calm   1.2 mph 69 % 0.00 in
04:35 64.7 °F 54.7 °F 29.87 in Calm     70 % 0.00 in
04:40 64.6 °F 55.0 °F 29.87 in Calm     71 % 0.00 in
04:45 64.5 °F 55.3 °F 29.87 in WSW 0.8 mph 2.3 mph 72 % 0.00 in
04:50 64.3 °F 54.7 °F 29.87 in Calm   1.2 mph 71 % 0.00 in
04:55 64.1 °F 54.5 °F 29.87 in WSW 0.4 mph 2.3 mph 71 % 0.00 in
05:00 64.0 °F 55.2 °F 29.88 in Calm   1.2 mph 73 % 0.00 in
05:05 63.7 °F 55.3 °F 29.87 in WSW 0.2 mph 1.2 mph 74 % 0.00 in
05:11 63.4 °F 55.0 °F 29.87 in Calm   2.0 mph 74 % 0.00 in
05:16 63.2 °F 54.8 °F 29.87 in Calm   1.0 mph 74 % 0.00 in
05:21 62.9 °F 55.2 °F 29.88 in Calm     76 % 0.00 in
05:26 62.6 °F 54.9 °F 29.88 in Calm     76 % 0.00 in
05:31 62.3 °F 54.6 °F 29.88 in WSW 0.1 mph 1.2 mph 76 % 0.00 in
05:36 62.1 °F 54.8 °F 29.88 in Calm   1.0 mph 77 % 0.00 in
05:41 61.9 °F 54.6 °F 29.88 in WSW 1.0 mph 1.2 mph 77 % 0.00 in
05:43 61.8 °F 54.5 °F 29.88 in Calm   1.2 mph 77 % 0.00 in
05:49 61.6 °F 54.3 °F 29.88 in Calm   1.2 mph 77 % 0.00 in
05:54 61.5 °F 55.3 °F 29.89 in Calm     80 % 0.00 in
05:59 61.3 °F 55.1 °F 29.89 in Calm     80 % 0.00 in
06:04 61.2 °F 55.0 °F 29.89 in Calm     80 % 0.00 in
06:09 61.1 °F 54.9 °F 29.89 in Calm     80 % 0.00 in
06:14 61.0 °F 54.4 °F 29.89 in Calm     79 % 0.00 in
06:19 61.0 °F 54.8 °F 29.90 in Calm     80 % 0.00 in
06:24 61.0 °F 55.5 °F 29.90 in Calm     82 % 0.00 in
06:29 61.0 °F 55.5 °F 29.90 in WSW 0.2 mph 1.2 mph 82 % 0.00 in
06:34 61.1 °F 55.9 °F 29.90 in WSW 0.1 mph 1.2 mph 83 % 0.00 in
06:39 61.3 °F 56.4 °F 29.90 in WSW 0.1 mph 1.2 mph 84 % 0.00 in
06:44 61.5 °F 56.0 °F 29.90 in WSW 0.4 mph 1.2 mph 82 % 0.00 in
06:49 61.8 °F 56.2 °F 29.90 in WSW 1.4 mph 2.3 mph 82 % 0.00 in
06:54 62.2 °F 56.3 °F 29.90 in WSW 0.3 mph 1.2 mph 81 % 0.00 in
06:59 62.8 °F 56.2 °F 29.91 in WSW 1.5 mph 2.3 mph 79 % 0.00 in
07:04 63.4 °F 56.8 °F 29.91 in WSW 0.8 mph 2.3 mph 79 % 0.00 in
07:09 64.1 °F 57.1 °F 29.91 in WSW 2.2 mph 6.0 mph 78 % 0.00 in
07:14 64.7 °F 57.3 °F 29.91 in SW 0.7 mph 1.2 mph 77 % 0.00 in
07:19 65.4 °F 57.6 °F 29.92 in WSW 3.9 mph 6.0 mph 76 % 0.00 in
07:24 66.1 °F 57.9 °F 29.92 in West 2.5 mph 6.9 mph 75 % 0.00 in
07:29 66.7 °F 57.4 °F 29.92 in WSW 3.7 mph 6.9 mph 72 % 0.00 in
07:34 67.3 °F 57.6 °F 29.93 in WSW 2.4 mph 6.9 mph 71 % 0.00 in
07:40 67.8 °F 58.1 °F 29.93 in WSW 3.2 mph 5.8 mph 71 % 0.00 in
07:45 68.1 °F 57.9 °F 29.93 in West 1.6 mph 4.6 mph 70 % 0.00 in
07:50 68.3 °F 58.5 °F 29.93 in WSW 2.1 mph 3.5 mph 71 % 0.00 in
07:55 68.5 °F 58.3 °F 29.93 in West 1.8 mph 5.0 mph 70 % 0.00 in
08:00 68.7 °F 58.1 °F 29.93 in West 2.4 mph 4.6 mph 69 % 0.00 in
08:05 68.9 °F 58.3 °F 29.93 in SW 2.7 mph 4.6 mph 69 % 0.00 in
08:10 69.1 °F 58.1 °F 29.93 in WNW 2.9 mph 5.8 mph 68 % 0.00 in
08:12 69.2 °F 58.2 °F 29.94 in West 2.5 mph 3.5 mph 68 % 0.00 in
08:17 69.4 °F 58.8 °F 29.94 in WSW 0.1 mph 1.2 mph 69 % 0.00 in
08:22 69.7 °F 59.5 °F 29.94 in WNW 1.1 mph 3.0 mph 70 % 0.00 in
08:27 70.0 °F 58.5 °F 29.94 in WNW 2.5 mph 4.0 mph 67 % 0.00 in
08:32 70.3 °F 58.4 °F 29.94 in WSW 3.9 mph 6.9 mph 66 % 0.00 in
08:37 70.6 °F 58.3 °F 29.95 in West 4.7 mph 6.9 mph 65 % 0.00 in
08:42 71.0 °F 57.8 °F 29.95 in WSW 4.3 mph 6.9 mph 63 % 0.00 in
08:47 71.2 °F 58.0 °F 29.95 in SW 3.4 mph 9.0 mph 63 % 0.00 in
08:52 71.5 °F 58.7 °F 29.95 in WSW 3.1 mph 6.0 mph 64 % 0.00 in
08:57 71.7 °F 58.9 °F 29.95 in WSW 2.9 mph 6.9 mph 64 % 0.00 in
09:02 71.8 °F 59.4 °F 29.95 in West 2.3 mph 4.0 mph 65 % 0.00 in
09:03 71.8 °F 59.0 °F 29.95 in WSW 2.9 mph 8.0 mph 64 % 0.00 in
09:08 72.0 °F 59.2 °F 29.95 in WSW 1.3 mph 6.9 mph 64 % 0.00 in
09:13 72.2 °F 59.3 °F 29.95 in WSW 3.7 mph 5.8 mph 64 % 0.00 in
09:18 72.4 °F 59.1 °F 29.95 in WSW 4.9 mph 6.9 mph 63 % 0.00 in
09:23 72.6 °F 59.7 °F 29.95 in West 2.6 mph 4.6 mph 64 % 0.00 in
09:28 72.9 °F 60.0 °F 29.95 in WSW 5.1 mph 6.9 mph 64 % 0.00 in
09:32 73.1 °F 60.2 °F 29.95 in WNW 2.9 mph 6.9 mph 64 % 0.00 in
09:37 73.5 °F 60.1 °F 29.95 in WSW 2.7 mph 4.6 mph 63 % 0.00 in
09:42 74.0 °F 61.0 °F 29.96 in WNW 2.2 mph 4.6 mph 64 % 0.00 in
09:47 74.7 °F 60.8 °F 29.96 in WSW 2.5 mph 4.6 mph 62 % 0.00 in
09:52 75.6 °F 61.2 °F 29.96 in SW 5.3 mph 11.0 mph 61 % 0.00 in
09:57 76.6 °F 62.1 °F 29.97 in NW 2.3 mph 6.9 mph 61 % 0.00 in
10:02 77.3 °F 60.9 °F 29.97 in NW 1.3 mph 3.5 mph 57 % 0.00 in
10:07 77.9 °F 60.4 °F 29.97 in WSW 4.3 mph 6.9 mph 55 % 0.00 in
10:12 78.8 °F 61.3 °F 29.97 in SW 5.9 mph 9.2 mph 55 % 0.00 in
10:17 79.7 °F 61.6 °F 29.97 in WSW 4.2 mph 9.2 mph 54 % 0.00 in
10:22 80.4 °F 62.8 °F 29.97 in WNW 1.5 mph 3.5 mph 55 % 0.00 in
10:28 81.1 °F 63.4 °F 29.97 in WSW 3.7 mph 9.0 mph 55 % 0.00 in
10:33 81.7 °F 62.4 °F 29.97 in WSW 3.5 mph 4.6 mph 52 % 0.00 in
10:38 82.3 °F 62.4 °F 29.96 in WSW 0.5 mph 5.8 mph 51 % 0.00 in
10:43 82.7 °F 61.6 °F 29.96 in WSW 5.6 mph 8.1 mph 49 % 0.00 in
10:48 83.1 °F 62.5 °F 29.96 in WNW 2.6 mph 5.8 mph 50 % 0.00 in
10:53 83.5 °F 62.3 °F 29.96 in West 0.9 mph 2.3 mph 49 % 0.00 in
10:58 83.7 °F 62.5 °F 29.96 in SW 4.2 mph 5.8 mph 49 % 0.00 in
11:03 84.0 °F 62.8 °F 29.96 in SW 4.1 mph 6.9 mph 49 % 0.00 in
11:08 84.1 °F 62.3 °F 29.96 in WSW 2.4 mph 4.6 mph 48 % 0.00 in
11:13 84.4 °F 62.6 °F 29.96 in SW 3.0 mph 4.6 mph 48 % 0.00 in
11:14 84.4 °F 62.0 °F 29.96 in WSW 0.4 mph 4.6 mph 47 % 0.00 in
11:19 84.7 °F 62.8 °F 29.96 in WNW 1.4 mph 3.5 mph 48 % 0.00 in
11:24 85.1 °F 63.8 °F 29.96 in SW 3.7 mph 5.8 mph 49 % 0.00 in
11:29 85.6 °F 63.1 °F 29.95 in West 1.8 mph 3.5 mph 47 % 0.00 in
11:34 85.7 °F 61.3 °F 29.95 in WSW 2.2 mph 3.5 mph 44 % 0.00 in
11:39 86.0 °F 63.4 °F 29.95 in SSW 2.6 mph 4.6 mph 47 % 0.00 in
11:44 86.3 °F 63.1 °F 29.95 in SW 3.6 mph 6.9 mph 46 % 0.00 in
11:49 86.6 °F 63.4 °F 29.95 in WSW 3.7 mph 6.0 mph 46 % 0.00 in
11:54 86.8 °F 63.5 °F 29.95 in SW 3.0 mph 5.8 mph 46 % 0.00 in
11:59 86.8 °F 63.5 °F 29.95 in WSW 1.4 mph 5.0 mph 46 % 0.00 in
12:04 86.9 °F 63.6 °F 29.95 in NW 2.3 mph 6.9 mph 46 % 0.00 in
12:09 87.2 °F 63.3 °F 29.95 in North 4.2 mph 9.2 mph 45 % 0.00 in
12:14 87.5 °F 62.9 °F 29.95 in West 4.3 mph 6.9 mph 44 % 0.00 in
12:19 87.8 °F 63.8 °F 29.95 in WNW 0.9 mph 2.3 mph 45 % 0.00 in
12:22 88.0 °F 64.0 °F 29.95 in NW 3.6 mph 6.9 mph 45 % 0.00 in
12:27 88.1 °F 62.8 °F 29.95 in WNW 0.9 mph 3.5 mph 43 % 0.00 in
12:32 88.3 °F 64.9 °F 29.95 in WSW 1.2 mph 6.0 mph 46 % 0.00 in
12:37 88.3 °F 62.3 °F 29.95 in WSW 1.6 mph 6.9 mph 42 % 0.00 in
12:42 88.5 °F 63.1 °F 29.95 in West 2.6 mph 5.8 mph 43 % 0.00 in
12:47 88.6 °F 61.2 °F 29.95 in WNW 4.0 mph 6.9 mph 40 % 0.00 in
12:52 88.7 °F 62.0 °F 29.95 in SW 4.1 mph 8.1 mph 41 % 0.00 in
12:57 88.7 °F 62.0 °F 29.94 in North 4.5 mph 9.2 mph 41 % 0.00 in
13:02 88.7 °F 65.3 °F 29.94 in WNW 1.0 mph 5.8 mph 46 % 0.00 in
13:07 88.9 °F 63.5 °F 29.94 in WNW 3.5 mph 6.0 mph 43 % 0.00 in
13:13 89.1 °F 63.7 °F 29.94 in NNE 2.2 mph 4.6 mph 43 % 0.00 in
13:18 89.3 °F 62.5 °F 29.93 in West 1.1 mph 8.1 mph 41 % 0.00 in
13:23 89.6 °F 64.8 °F 29.93 in NW 0.9 mph 4.6 mph 44 % 0.00 in
13:28 89.9 °F 65.1 °F 29.93 in NNE 0.5 mph 1.2 mph 44 % 0.00 in
13:33 90.1 °F 61.8 °F 29.93 in WNW 0.9 mph 2.3 mph 39 % 0.00 in
13:34 90.2 °F 63.3 °F 29.93 in WNW 1.6 mph 2.3 mph 41 % 0.00 in
13:39 90.4 °F 63.5 °F 29.93 in WSW 2.1 mph 6.9 mph 41 % 0.00 in
13:44 90.5 °F 62.9 °F 29.93 in SW 3.4 mph 5.0 mph 40 % 0.00 in
13:49 90.5 °F 61.4 °F 29.93 in WSW 3.4 mph 6.9 mph 38 % 0.00 in
13:54 90.6 °F 63.0 °F 29.93 in SW 3.5 mph 9.2 mph 40 % 0.00 in
13:59 90.5 °F 61.4 °F 29.93 in WSW 6.5 mph 10.4 mph 38 % 0.00 in
14:04 90.5 °F 62.9 °F 29.93 in SW 4.8 mph 8.1 mph 40 % 0.00 in
14:09 90.6 °F 62.3 °F 29.93 in West 4.8 mph 10.4 mph 39 % 0.00 in
14:14 90.5 °F 62.2 °F 29.92 in WSW 7.2 mph 16.0 mph 39 % 0.00 in
14:19 90.3 °F 62.0 °F 29.93 in SSW 3.9 mph 9.2 mph 39 % 0.00 in
14:24 90.4 °F 61.3 °F 29.92 in WSW 2.3 mph 9.2 mph 38 % 0.00 in
14:29 90.4 °F 62.8 °F 29.92 in SW 3.8 mph 11.0 mph 40 % 0.00 in
14:34 90.4 °F 62.8 °F 29.92 in SSW 2.7 mph 5.0 mph 40 % 0.00 in
14:39 90.3 °F 62.0 °F 29.92 in SW 4.7 mph 9.2 mph 39 % 0.00 in
14:44 90.3 °F 62.7 °F 29.92 in SSE 4.7 mph 10.4 mph 40 % 0.00 in
14:49 90.3 °F 62.7 °F 29.92 in WNW 3.6 mph 7.0 mph 40 % 0.00 in
14:54 90.1 °F 62.5 °F 29.93 in SSW 4.7 mph 10.4 mph 40 % 0.00 in
14:59 90.0 °F 63.8 °F 29.92 in SSW 3.7 mph 5.0 mph 42 % 0.00 in
15:04 89.8 °F 63.6 °F 29.92 in South 0.7 mph 3.5 mph 42 % 0.00 in
15:09 89.2 °F 61.7 °F 29.92 in SW 4.6 mph 9.2 mph 40 % 0.00 in
15:14 88.8 °F 62.7 °F 29.92 in SE 1.7 mph 6.9 mph 42 % 0.00 in
15:19 88.4 °F 63.1 °F 29.92 in SSE 0.6 mph 2.3 mph 43 % 0.00 in
15:24 88.2 °F 62.2 °F 29.92 in SSW 3.7 mph 8.1 mph 42 % 0.00 in
15:30 88.1 °F 63.4 °F 29.92 in SSW 1.2 mph 4.6 mph 44 % 0.00 in
15:35 87.8 °F 63.2 °F 29.92 in SE 3.1 mph 5.8 mph 44 % 0.00 in
15:40 87.1 °F 60.5 °F 29.92 in South 4.7 mph 10.4 mph 41 % 0.00 in
15:45 86.3 °F 63.1 °F 29.92 in SSW 2.8 mph 5.8 mph 46 % 0.00 in
15:50 85.8 °F 62.0 °F 29.92 in SSW 2.2 mph 6.9 mph 45 % 0.00 in
15:55 85.5 °F 61.1 °F 29.92 in SSE 3.3 mph 8.1 mph 44 % 0.00 in
16:00 85.0 °F 61.9 °F 29.92 in SSE 2.3 mph 5.8 mph 46 % 0.00 in
16:05 84.8 °F 62.9 °F 29.92 in South 0.9 mph 4.6 mph 48 % 0.00 in
16:10 84.7 °F 61.6 °F 29.92 in East 1.9 mph 3.5 mph 46 % 0.00 in
16:15 84.6 °F 62.1 °F 29.92 in SSW 4.2 mph 6.9 mph 47 % 0.00 in
16:20 84.3 °F 61.9 °F 29.92 in SSE 1.0 mph 5.8 mph 47 % 0.00 in
16:25 83.9 °F 62.1 °F 29.92 in West 1.2 mph 3.5 mph 48 % 0.00 in
16:40 83.6 °F 63.6 °F 29.91 in SSW 3.7 mph 15.0 mph 51 % 0.00 in
16:45 83.7 °F 63.1 °F 29.91 in SW 1.9 mph 5.8 mph 50 % 0.00 in
16:50 83.7 °F 62.5 °F 29.91 in SW 3.4 mph 8.0 mph 49 % 0.00 in
16:55 83.6 °F 61.8 °F 29.91 in South 4.6 mph 11.5 mph 48 % 0.00 in
17:00 83.5 °F 62.3 °F 29.90 in SSE 3.3 mph 6.9 mph 49 % 0.00 in
17:05 83.4 °F 62.2 °F 29.91 in SSW 4.2 mph 6.9 mph 49 % 0.00 in
17:10 83.3 °F 61.6 °F 29.90 in SSW 3.3 mph 5.0 mph 48 % 0.00 in
17:15 83.2 °F 61.5 °F 29.90 in SE 3.8 mph 6.9 mph 48 % 0.00 in
17:20 83.0 °F 60.7 °F 29.90 in South 3.4 mph 5.0 mph 47 % 0.00 in
17:25 82.6 °F 60.3 °F 29.90 in South 1.8 mph 3.5 mph 47 % 0.00 in
17:28 82.5 °F 60.8 °F 29.90 in SE 1.6 mph 4.6 mph 48 % 0.00 in
17:33 82.4 °F 61.3 °F 29.90 in SE 0.5 mph 4.6 mph 49 % 0.00 in
17:39 82.2 °F 60.6 °F 29.90 in SSE 2.1 mph 4.0 mph 48 % 0.00 in
17:40 82.2 °F 60.6 °F 29.90 in SSE 3.2 mph 5.8 mph 48 % 0.00 in
17:46 82.0 °F 60.4 °F 29.90 in South 4.3 mph 7.0 mph 48 % 0.00 in
17:51 81.7 °F 60.1 °F 29.90 in South 3.0 mph 7.0 mph 48 % 0.00 in
17:56 81.5 °F 60.5 °F 29.90 in SE 1.8 mph 6.9 mph 49 % 0.00 in
18:01 81.2 °F 60.2 °F 29.90 in SSW 2.2 mph 6.9 mph 49 % 0.00 in
18:06 80.9 °F 60.5 °F 29.90 in South 1.7 mph 8.1 mph 50 % 0.00 in
18:11 80.7 °F 60.9 °F 29.90 in SW 1.7 mph 3.5 mph 51 % 0.00 in
18:16 80.4 °F 60.6 °F 29.90 in South 1.1 mph 3.5 mph 51 % 0.00 in
18:21 80.1 °F 60.3 °F 29.90 in SSE 1.3 mph 3.5 mph 51 % 0.00 in
18:26 79.8 °F 60.6 °F 29.90 in SSW 1.0 mph 3.5 mph 52 % 0.00 in
18:31 79.6 °F 61.0 °F 29.91 in South 3.4 mph 11.5 mph 53 % 0.00 in
18:36 79.5 °F 60.9 °F 29.90 in SSW 3.5 mph 7.0 mph 53 % 0.00 in
18:41 79.3 °F 61.2 °F 29.90 in SSW 3.2 mph 6.9 mph 54 % 0.00 in
18:46 79.1 °F 61.5 °F 29.90 in SSE 3.8 mph 6.0 mph 55 % 0.00 in
18:51 79.0 °F 61.5 °F 29.90 in SSW 3.8 mph 7.0 mph 55 % 0.00 in
18:56 78.9 °F 61.4 °F 29.91 in SW 1.6 mph 3.5 mph 55 % 0.00 in
19:01 78.7 °F 61.7 °F 29.91 in SSW 3.2 mph 6.0 mph 56 % 0.00 in
19:06 78.5 °F 61.5 °F 29.91 in South 3.4 mph 5.8 mph 56 % 0.00 in
19:11 78.4 °F 61.9 °F 29.92 in WSW 4.0 mph 6.9 mph 57 % 0.00 in
19:16 78.2 °F 61.7 °F 29.91 in WSW 2.6 mph 9.2 mph 57 % 0.00 in
19:21 78.0 °F 61.5 °F 29.91 in SW 3.0 mph 8.1 mph 57 % 0.00 in
19:26 77.9 °F 61.9 °F 29.92 in SSW 2.6 mph 6.9 mph 58 % 0.00 in
19:31 77.6 °F 61.7 °F 29.92 in SSW 1.4 mph 5.8 mph 58 % 0.00 in
19:36 77.4 °F 61.9 °F 29.92 in SW 2.5 mph 5.0 mph 59 % 0.00 in
19:41 77.2 °F 61.8 °F 29.92 in SSW 3.4 mph 6.9 mph 59 % 0.00 in
19:46 76.9 °F 61.5 °F 29.92 in SSW 2.3 mph 8.1 mph 59 % 0.00 in
19:51 76.7 °F 61.8 °F 29.92 in South 3.2 mph 9.2 mph 60 % 0.00 in
19:56 76.4 °F 61.5 °F 29.92 in SE 2.0 mph 5.8 mph 60 % 0.00 in
20:01 76.2 °F 61.3 °F 29.92 in South 1.9 mph 3.5 mph 60 % 0.00 in
20:06 76.1 °F 61.7 °F 29.92 in WSW 1.7 mph 3.5 mph 61 % 0.00 in
20:11 75.8 °F 61.4 °F 29.93 in SW 1.2 mph 4.6 mph 61 % 0.00 in
20:16 75.7 °F 61.8 °F 29.93 in SE 1.7 mph 3.5 mph 62 % 0.00 in
20:21 75.5 °F 61.6 °F 29.93 in South 1.6 mph 5.8 mph 62 % 0.00 in
20:26 75.3 °F 61.8 °F 29.93 in SW 1.0 mph 3.5 mph 63 % 0.00 in
20:31 75.1 °F 61.6 °F 29.93 in South 2.1 mph 3.5 mph 63 % 0.00 in
20:36 74.9 °F 61.9 °F 29.94 in SSW 2.4 mph 5.8 mph 64 % 0.00 in
20:41 74.8 °F 61.8 °F 29.94 in South 0.6 mph 3.5 mph 64 % 0.00 in
20:46 74.6 °F 62.1 °F 29.94 in South 0.6 mph 6.9 mph 65 % 0.00 in
20:52 74.5 °F 62.0 °F 29.94 in South 0.9 mph 3.5 mph 65 % 0.00 in
20:57 74.3 °F 62.2 °F 29.94 in SW 1.8 mph 3.5 mph 66 % 0.00 in
21:02 74.2 °F 62.1 °F 29.95 in South 1.1 mph 3.5 mph 66 % 0.00 in
21:07 74.1 °F 62.4 °F 29.95 in South 0.6 mph 2.3 mph 67 % 0.00 in
21:12 73.9 °F 62.2 °F 29.95 in SSW 0.8 mph 3.5 mph 67 % 0.00 in
21:17 73.8 °F 62.2 °F 29.95 in SSW 2.2 mph 3.5 mph 67 % 0.00 in
21:22 73.7 °F 62.5 °F 29.95 in SSW 1.9 mph 3.5 mph 68 % 0.00 in
21:24 73.7 °F 62.5 °F 29.95 in SW 2.1 mph 4.6 mph 68 % 0.00 in
21:30 73.5 °F 62.7 °F 29.96 in SSW 0.6 mph 3.5 mph 69 % 0.00 in
21:35 73.3 °F 62.5 °F 29.96 in SW 0.6 mph 3.5 mph 69 % 0.00 in
21:40 73.2 °F 62.4 °F 29.96 in SSW 1.7 mph 3.5 mph 69 % 0.00 in
21:45 73.1 °F 62.3 °F 29.97 in SSW 0.7 mph 3.5 mph 69 % 0.00 in
21:50 73.1 °F 62.7 °F 29.97 in WSW 0.7 mph 3.5 mph 70 % 0.00 in
21:55 73.0 °F 62.6 °F 29.97 in WSW 0.7 mph 3.5 mph 70 % 0.00 in
22:00 72.9 °F 62.5 °F 29.97 in SSE 0.1 mph 1.2 mph 70 % 0.00 in
22:05 72.8 °F 62.4 °F 29.97 in South 0.6 mph 3.5 mph 70 % 0.00 in
22:10 72.7 °F 62.3 °F 29.98 in SSW 1.7 mph 3.5 mph 70 % 0.00 in
22:15 72.6 °F 62.3 °F 29.98 in SSW 2.2 mph 3.5 mph 70 % 0.00 in
22:20 72.6 °F 62.7 °F 29.98 in SSE 2.6 mph 6.9 mph 71 % 0.00 in
22:25 72.5 °F 62.6 °F 29.97 in WSW 3.1 mph 4.6 mph 71 % 0.00 in
22:30 72.5 °F 62.6 °F 29.98 in SW 0.6 mph 2.3 mph 71 % 0.00 in
22:35 72.5 °F 62.6 °F 29.98 in WSW 2.5 mph 5.0 mph 71 % 0.00 in
22:38 72.4 °F 62.9 °F 29.98 in SW 2.0 mph 3.5 mph 72 % 0.00 in
22:43 72.4 °F 62.9 °F 29.98 in SW 3.1 mph 4.0 mph 72 % 0.00 in
22:48 72.3 °F 62.8 °F 29.98 in SSW 0.4 mph 3.5 mph 72 % 0.00 in
22:53 72.3 °F 62.8 °F 29.97 in SSW 4.1 mph 8.1 mph 72 % 0.00 in
22:58 72.3 °F 62.8 °F 29.97 in SSW 1.5 mph 3.5 mph 72 % 0.00 in
23:03 72.2 °F 62.7 °F 29.98 in SSW 0.9 mph 3.5 mph 72 % 0.00 in
23:08 72.2 °F 62.7 °F 29.97 in SSW 1.4 mph 5.0 mph 72 % 0.00 in
23:13 72.1 °F 62.6 °F 29.98 in West 1.9 mph 3.5 mph 72 % 0.00 in
23:18 72.0 °F 62.5 °F 29.97 in SE 0.7 mph 2.3 mph 72 % 0.00 in
23:23 72.0 °F 62.5 °F 29.97 in WSW 3.5 mph 3.5 mph 72 % 0.00 in
23:28 71.9 °F 62.4 °F 29.97 in WSW 3.1 mph 11.5 mph 72 % 0.00 in
23:33 71.8 °F 62.7 °F 29.98 in SW 1.2 mph 3.5 mph 73 % 0.00 in
23:39 71.7 °F 62.6 °F 29.98 in SSW 1.6 mph 3.5 mph 73 % 0.00 in
23:44 71.7 °F 62.6 °F 29.98 in SW 1.1 mph 3.5 mph 73 % 0.00 in
23:49 71.6 °F 62.9 °F 29.98 in SSW 3.1 mph 7.0 mph 74 % 0.00 in
23:54 71.6 °F 62.9 °F 29.98 in SW 1.0 mph 3.5 mph 74 % 0.00 in
23:59 71.5 °F 62.8 °F 29.98 in SSW 3.0 mph 5.0 mph 74 % 0.00 in
Crab Meadow Weather
Compliments of Weather Underground - 3 mb

Script developed by  Jim McMurry - jmcmurry@mwt.net Adapted for the template by  Wim van der Kuil - Leuven-Template.eu

Weather Terms: Gustnado - A gust front tornado. A small, weak, short-lived tornado that occurs along a gust front - the leading edge of a thunderstorm, caused by rain-cooled air flowing out from the storm's downdraft. A gustnado is often visible as a debris cloud or dust whirl.